createdAt,value
2018-03-06T00:00:44.790Z,50.95
2018-03-06T00:01:44.538Z,51.05
2018-03-06T00:02:44.802Z,50.95
2018-03-06T00:03:44.809Z,50.86
2018-03-06T00:04:44.842Z,50.95
2018-03-06T00:05:44.537Z,51.05
2018-03-06T00:06:44.549Z,51.14
2018-03-06T00:07:44.861Z,51.14
2018-03-06T00:08:44.872Z,51.05
2018-03-06T00:09:45.704Z,51.24
2018-03-06T00:10:44.889Z,51.33
2018-03-06T00:11:44.912Z,51.14
2018-03-06T00:12:44.924Z,51.05
2018-03-06T00:13:45.838Z,51.14
2018-03-06T00:14:44.639Z,51.14
2018-03-06T00:15:44.657Z,51.33
2018-03-06T00:16:44.973Z,51.33
2018-03-06T00:17:45.917Z,51.14
2018-03-06T00:18:44.988Z,51.05
2018-03-06T00:19:45.016Z,51.24
2018-03-06T00:20:45.017Z,51.05
2018-03-06T00:21:45.042Z,51.43
2018-03-06T00:22:45.084Z,51.43
2018-03-06T00:23:45.190Z,51.24
2018-03-06T00:24:44.750Z,51.43
2018-03-06T00:25:44.761Z,51.14
2018-03-06T00:26:45.083Z,51.24
2018-03-06T00:27:45.924Z,51.14
2018-03-06T00:28:44.796Z,51.14
2018-03-06T00:29:45.125Z,51.14
2018-03-06T00:30:45.123Z,51.33
2018-03-06T00:31:44.826Z,51.72
2018-03-06T00:32:44.839Z,51.24
2018-03-06T00:33:44.850Z,51.43
2018-03-06T00:34:45.159Z,51.24
2018-03-06T00:35:45.677Z,51.43
2018-03-06T00:36:44.884Z,51.33
2018-03-06T00:37:44.946Z,51.62
2018-03-06T00:38:44.903Z,51.43
2018-03-06T00:39:44.915Z,51.52
2018-03-06T00:40:44.925Z,51.52
2018-03-06T00:41:44.937Z,51.33
2018-03-06T00:42:46.261Z,51.52
2018-03-06T00:43:44.959Z,51.62
2018-03-06T00:44:44.971Z,51.52
2018-03-06T00:45:46.138Z,51.62
2018-03-06T00:46:45.307Z,51.52
2018-03-06T00:47:45.347Z,51.72
2018-03-06T00:48:45.012Z,51.81
2018-03-06T00:49:45.024Z,51.62
2018-03-06T00:50:45.040Z,51.62
2018-03-06T00:51:45.347Z,51.62
2018-03-06T00:52:45.106Z,51.9
2018-03-06T00:53:45.068Z,51.9
2018-03-06T00:54:45.081Z,51.81
2018-03-06T00:55:46.324Z,51.9
2018-03-06T00:56:45.389Z,51.81
2018-03-06T00:57:45.454Z,51.81
2018-03-06T00:58:45.424Z,51.72
2018-03-06T00:59:46.330Z,51.9
2018-03-06T01:00:45.434Z,51.9
2018-03-06T01:01:45.461Z,51.72
2018-03-06T01:02:45.217Z,51.72
2018-03-06T01:03:45.494Z,52.06
2018-03-06T01:04:45.190Z,51.78
2018-03-06T01:05:45.491Z,51.97
2018-03-06T01:06:46.265Z,52
2018-03-06T01:07:45.581Z,51.78
2018-03-06T01:08:45.546Z,52.16
2018-03-06T01:09:45.545Z,52.16
2018-03-06T01:10:46.379Z,52.16
2018-03-06T01:11:45.562Z,52.09
2018-03-06T01:12:45.628Z,52.06
2018-03-06T01:13:46.492Z,51.97
2018-03-06T01:14:45.293Z,52.06
2018-03-06T01:15:45.599Z,52.06
2018-03-06T01:16:45.612Z,52.06
2018-03-06T01:17:46.445Z,51.87
2018-03-06T01:18:45.637Z,51.87
2018-03-06T01:19:45.350Z,52.16
2018-03-06T01:20:45.669Z,52.16
2018-03-06T01:21:46.184Z,51.97
2018-03-06T01:22:45.725Z,52.16
2018-03-06T01:23:45.684Z,52.06
2018-03-06T01:24:46.570Z,52.06
2018-03-06T01:25:45.713Z,52.26
2018-03-06T01:26:45.739Z,52.35
2018-03-06T01:27:45.762Z,52.26
2018-03-06T01:28:45.735Z,51.97
2018-03-06T01:29:45.457Z,52.35
2018-03-06T01:30:45.779Z,52.35
2018-03-06T01:31:45.477Z,52.45
2018-03-06T01:32:45.487Z,52.26
2018-03-06T01:33:45.499Z,52.35
2018-03-06T01:34:46.721Z,52.45
2018-03-06T01:35:45.519Z,52.35
2018-03-06T01:36:45.833Z,52.26
2018-03-06T01:37:46.777Z,52.35
2018-03-06T01:38:45.865Z,52.35
2018-03-06T01:39:45.856Z,52.73
2018-03-06T01:40:45.885Z,52.45
2018-03-06T01:41:45.885Z,52.26
2018-03-06T01:42:45.904Z,52.35
2018-03-06T01:43:45.895Z,52.35
2018-03-06T01:44:45.615Z,52.35
2018-03-06T01:45:45.626Z,52.83
2018-03-06T01:46:45.933Z,52.54
2018-03-06T01:47:45.650Z,52.45
2018-03-06T01:48:45.966Z,52.54
2018-03-06T01:49:45.988Z,52.54
2018-03-06T01:50:46.785Z,52.64
2018-03-06T01:51:45.695Z,52.73
2018-03-06T01:52:46.010Z,52.45
2018-03-06T01:53:46.001Z,52.54
2018-03-06T01:54:45.721Z,52.54
2018-03-06T01:55:46.029Z,52.54
2018-03-06T01:56:46.037Z,52.26
2018-03-06T01:57:47.050Z,52.35
2018-03-06T01:58:46.055Z,52.35
2018-03-06T01:59:46.070Z,52.54
2018-03-06T02:00:46.088Z,52.45
2018-03-06T02:01:46.959Z,52.92
2018-03-06T02:02:46.105Z,52.35
2018-03-06T02:03:45.864Z,52.83
2018-03-06T02:04:46.830Z,52.35
2018-03-06T02:05:45.839Z,52.26
2018-03-06T02:06:46.175Z,52.16
2018-03-06T02:07:46.155Z,52.26
2018-03-06T02:08:45.919Z,52.16
2018-03-06T02:09:46.175Z,52.16
2018-03-06T02:10:46.192Z,52.16
2018-03-06T02:11:46.883Z,52.35
2018-03-06T02:12:45.914Z,52.06
2018-03-06T02:13:46.303Z,52.26
2018-03-06T02:14:46.376Z,52.26
2018-03-06T02:15:47.151Z,52.16
2018-03-06T02:16:45.951Z,52.35
2018-03-06T02:17:46.257Z,52.06
2018-03-06T02:18:46.266Z,52.35
2018-03-06T02:19:46.660Z,52.26
2018-03-06T02:20:46.302Z,52.45
2018-03-06T02:21:46.315Z,53.11
2018-03-06T02:22:46.018Z,52.45
2018-03-06T02:23:47.131Z,52.35
2018-03-06T02:24:46.326Z,52.54
2018-03-06T02:25:46.347Z,52.64
2018-03-06T02:26:47.205Z,52.35
2018-03-06T02:27:46.370Z,52.73
2018-03-06T02:28:46.126Z,52.35
2018-03-06T02:29:46.379Z,52.54
2018-03-06T02:30:46.099Z,52.45
2018-03-06T02:31:46.115Z,52.83
2018-03-06T02:32:46.436Z,52.73
2018-03-06T02:33:46.130Z,52.54
2018-03-06T02:34:46.137Z,52.73
2018-03-06T02:35:46.450Z,52.83
2018-03-06T02:36:46.458Z,52.35
2018-03-06T02:37:47.360Z,52.45
2018-03-06T02:38:46.492Z,52.64
2018-03-06T02:39:46.523Z,52.64
2018-03-06T02:40:46.515Z,52.35
2018-03-06T02:41:47.447Z,52.64
2018-03-06T02:42:46.527Z,52.54
2018-03-06T02:43:46.534Z,52.45
2018-03-06T02:44:46.241Z,52.64
2018-03-06T02:45:46.562Z,52.73
2018-03-06T02:46:46.562Z,52.54
2018-03-06T02:47:46.274Z,52.54
2018-03-06T02:48:47.351Z,52.45
2018-03-06T02:49:46.604Z,52.54
2018-03-06T02:50:46.598Z,52.45
2018-03-06T02:51:46.313Z,52.54
2018-03-06T02:52:46.618Z,52.73
2018-03-06T02:53:46.335Z,52.83
2018-03-06T02:54:46.645Z,52.83
2018-03-06T02:55:46.357Z,52.92
2018-03-06T02:56:46.706Z,53.02
2018-03-06T02:57:46.744Z,53.39
2018-03-06T02:58:46.697Z,53.58
2018-03-06T02:59:46.396Z,52.92
2018-03-06T03:00:46.407Z,52.92
2018-03-06T03:01:46.468Z,53.3
2018-03-06T03:02:47.583Z,53.02
2018-03-06T03:03:46.740Z,53.02
2018-03-06T03:04:46.754Z,53.39
2018-03-06T03:05:46.755Z,53.39
2018-03-06T03:06:47.718Z,53.58
2018-03-06T03:07:46.776Z,53.68
2018-03-06T03:08:46.807Z,53.68
2018-03-06T03:09:46.816Z,53.68
2018-03-06T03:10:47.546Z,53.39
2018-03-06T03:11:46.815Z,53.58
2018-03-06T03:12:46.823Z,53.39
2018-03-06T03:13:47.637Z,53.3
2018-03-06T03:14:46.550Z,53.58
2018-03-06T03:15:46.560Z,53.39
2018-03-06T03:16:46.569Z,53.49
2018-03-06T03:17:47.708Z,53.49
2018-03-06T03:18:46.888Z,53.39
2018-03-06T03:19:46.600Z,53.58
2018-03-06T03:20:46.926Z,53.49
2018-03-06T03:21:46.623Z,53.39
2018-03-06T03:22:46.921Z,53.49
2018-03-06T03:23:46.936Z,53.49
2018-03-06T03:24:47.743Z,53.49
2018-03-06T03:25:46.977Z,53.58
2018-03-06T03:26:46.673Z,53.3
2018-03-06T03:27:47.835Z,53.11
2018-03-06T03:28:46.694Z,53.3
2018-03-06T03:29:47.025Z,53.3
2018-03-06T03:30:47.917Z,53.11
2018-03-06T03:31:47.039Z,53.3
2018-03-06T03:32:47.036Z,53.3
2018-03-06T03:33:47.044Z,53.02
2018-03-06T03:34:47.057Z,52.98
2018-03-06T03:35:46.767Z,53.3
2018-03-06T03:36:46.775Z,53.11
2018-03-06T03:37:47.714Z,53.08
2018-03-06T03:38:47.092Z,53.27
2018-03-06T03:39:47.095Z,53.08
2018-03-06T03:40:47.911Z,52.98
2018-03-06T03:41:47.120Z,53.18
2018-03-06T03:42:47.136Z,53.11
2018-03-06T03:43:48.178Z,53.27
2018-03-06T03:44:47.157Z,53.2
2018-03-06T03:45:47.159Z,53.46
2018-03-06T03:46:46.874Z,53.27
2018-03-06T03:47:47.190Z,53.27
2018-03-06T03:48:47.195Z,53.08
2018-03-06T03:49:48.068Z,53.37
2018-03-06T03:50:47.207Z,53.18
2018-03-06T03:51:46.925Z,53.2
2018-03-06T03:52:47.245Z,53.27
2018-03-06T03:53:48.125Z,53.3
2018-03-06T03:54:46.957Z,53.49
2018-03-06T03:55:47.302Z,53.27
2018-03-06T03:56:48.105Z,53.46
2018-03-06T03:57:46.986Z,53.27
2018-03-06T03:58:47.288Z,53.2
2018-03-06T03:59:47.323Z,53.94
2018-03-06T04:00:47.636Z,53.27
2018-03-06T04:01:47.026Z,53.65
2018-03-06T04:02:47.340Z,53.27
2018-03-06T04:03:47.997Z,53.27
2018-03-06T04:04:47.358Z,53.18
2018-03-06T04:05:47.104Z,53.27
2018-03-06T04:06:47.395Z,53.27
2018-03-06T04:07:47.389Z,53.56
2018-03-06T04:08:48.282Z,53.46
2018-03-06T04:09:47.109Z,53.37
2018-03-06T04:10:47.115Z,53.27
2018-03-06T04:11:47.133Z,53.46
2018-03-06T04:12:48.249Z,53.46
2018-03-06T04:13:47.442Z,53.46
2018-03-06T04:14:47.453Z,53.46
2018-03-06T04:15:48.179Z,53.65
2018-03-06T04:16:47.179Z,53.46
2018-03-06T04:17:47.495Z,53.46
2018-03-06T04:18:48.444Z,53.37
2018-03-06T04:19:47.561Z,53.75
2018-03-06T04:20:47.513Z,53.37
2018-03-06T04:21:47.229Z,53.75
2018-03-06T04:22:48.302Z,53.08
2018-03-06T04:23:47.541Z,53.84
2018-03-06T04:24:47.609Z,53.37
2018-03-06T04:25:48.494Z,53.65
2018-03-06T04:26:47.579Z,53.75
2018-03-06T04:27:47.288Z,53.56
2018-03-06T04:28:47.605Z,53.75
2018-03-06T04:29:48.448Z,53.84
2018-03-06T04:30:47.317Z,53.65
2018-03-06T04:31:47.648Z,53.56
2018-03-06T04:32:47.334Z,53.56
2018-03-06T04:33:47.643Z,53.56
2018-03-06T04:34:47.654Z,53.75
2018-03-06T04:35:47.367Z,53.37
2018-03-06T04:36:47.670Z,53.46
2018-03-06T04:37:47.385Z,53.27
2018-03-06T04:38:47.696Z,53.37
2018-03-06T04:39:48.199Z,53.46
2018-03-06T04:40:47.728Z,53.46
2018-03-06T04:41:47.427Z,53.84
2018-03-06T04:42:48.625Z,53.94
2018-03-06T04:43:47.450Z,53.65
2018-03-06T04:44:47.507Z,53.56
2018-03-06T04:45:47.786Z,53.75
2018-03-06T04:46:48.755Z,53.37
2018-03-06T04:47:47.484Z,53.75
2018-03-06T04:48:47.498Z,53.37
2018-03-06T04:49:47.509Z,53.75
2018-03-06T04:50:47.819Z,53.75
2018-03-06T04:51:47.525Z,53.56
2018-03-06T04:52:47.535Z,53.56
2018-03-06T04:53:47.545Z,53.75
2018-03-06T04:54:47.859Z,53.84
2018-03-06T04:55:47.884Z,53.84
2018-03-06T04:56:47.875Z,53.84
2018-03-06T04:57:47.874Z,53.75
2018-03-06T04:58:47.885Z,53.65
2018-03-06T04:59:47.605Z,53.94
2018-03-06T05:00:47.613Z,53.75
2018-03-06T05:01:47.947Z,53.84
2018-03-06T05:02:47.932Z,53.56
2018-03-06T05:03:47.957Z,54.03
2018-03-06T05:04:47.656Z,53.65
2018-03-06T05:05:47.968Z,53.65
2018-03-06T05:06:47.966Z,53.84
2018-03-06T05:07:47.686Z,53.94
2018-03-06T05:08:48.825Z,53.75
2018-03-06T05:09:47.706Z,53.75
2018-03-06T05:10:47.714Z,53.84
2018-03-06T05:11:48.853Z,53.84
2018-03-06T05:12:48.028Z,54.03
2018-03-06T05:13:48.068Z,53.94
2018-03-06T05:14:47.752Z,53.94
2018-03-06T05:15:48.057Z,53.84
2018-03-06T05:16:47.773Z,54.03
2018-03-06T05:17:48.890Z,54.03
2018-03-06T05:18:48.099Z,53.94
2018-03-06T05:19:47.802Z,54.03
2018-03-06T05:20:48.104Z,53.94
2018-03-06T05:21:49.112Z,53.84
2018-03-06T05:22:48.131Z,54.03
2018-03-06T05:23:48.155Z,54.13
2018-03-06T05:24:48.145Z,53.84
2018-03-06T05:25:47.863Z,53.94
2018-03-06T05:26:48.215Z,53.94
2018-03-06T05:27:47.882Z,54.03
2018-03-06T05:28:48.193Z,53.94
2018-03-06T05:29:49.143Z,54.22
2018-03-06T05:30:48.201Z,54.03
2018-03-06T05:31:48.226Z,54.03
2018-03-06T05:32:48.243Z,54.32
2018-03-06T05:33:48.251Z,54.41
2018-03-06T05:34:48.245Z,54.69
2018-03-06T05:35:48.008Z,54.88
2018-03-06T05:36:49.263Z,54.41
2018-03-06T05:37:48.268Z,54.03
2018-03-06T05:38:48.289Z,54.6
2018-03-06T05:39:48.288Z,54.79
2018-03-06T05:40:49.253Z,54.98
2018-03-06T05:41:48.017Z,54.79
2018-03-06T05:42:48.317Z,54.5
2018-03-06T05:43:48.338Z,54.5
2018-03-06T05:44:49.145Z,54.69
2018-03-06T05:45:48.399Z,54.79
2018-03-06T05:46:48.380Z,54.6
2018-03-06T05:47:48.372Z,54.6
2018-03-06T05:48:48.084Z,54.6
2018-03-06T05:49:48.397Z,54.5
2018-03-06T05:50:48.447Z,54.69
2018-03-06T05:51:48.932Z,54.6
2018-03-06T05:52:48.122Z,54.6
2018-03-06T05:53:48.133Z,54.6
2018-03-06T05:54:48.439Z,54.5
2018-03-06T05:55:48.153Z,54.6
2018-03-06T05:56:48.163Z,54.13
2018-03-06T05:57:48.172Z,54.69
2018-03-06T05:58:48.478Z,54.41
2018-03-06T05:59:49.416Z,54.41
2018-03-06T06:00:48.540Z,54.41
2018-03-06T06:01:48.529Z,54.5
2018-03-06T06:02:48.524Z,54.32
2018-03-06T06:03:49.439Z,54.32
2018-03-06T06:04:48.539Z,54.6
2018-03-06T06:05:48.552Z,54.41
2018-03-06T06:06:49.425Z,54.79
2018-03-06T06:07:48.269Z,54.69
2018-03-06T06:08:48.279Z,54.69
2018-03-06T06:09:48.289Z,54.88
2018-03-06T06:10:48.657Z,54.88
2018-03-06T06:11:49.468Z,55.17
2018-03-06T06:12:48.627Z,54.69
2018-03-06T06:13:48.330Z,55.07
2018-03-06T06:14:48.335Z,54.98
2018-03-06T06:15:48.631Z,55.17
2018-03-06T06:16:48.357Z,55.55
2018-03-06T06:17:48.677Z,55.55
2018-03-06T06:18:48.676Z,55.64
2018-03-06T06:19:48.387Z,55.64
2018-03-06T06:20:48.393Z,55.64
2018-03-06T06:21:48.735Z,55.26
2018-03-06T06:22:48.696Z,55.93
2018-03-06T06:23:48.423Z,55.83
2018-03-06T06:24:48.733Z,56.02
2018-03-06T06:25:48.768Z,56.12
2018-03-06T06:26:48.757Z,56.02
2018-03-06T06:27:48.464Z,56.12
2018-03-06T06:28:48.756Z,56.12
2018-03-06T06:29:48.767Z,56.21
2018-03-06T06:30:48.774Z,56.12
2018-03-06T06:31:48.797Z,55.93
2018-03-06T06:32:48.508Z,56.21
2018-03-06T06:33:48.919Z,56.02
2018-03-06T06:34:48.819Z,56.4
2018-03-06T06:35:48.830Z,56.12
2018-03-06T06:36:48.598Z,56.21
2018-03-06T06:37:48.841Z,56.3
2018-03-06T06:38:48.850Z,56.12
2018-03-06T06:39:48.862Z,56.21
2018-03-06T06:40:48.871Z,56.02
2018-03-06T06:41:48.928Z,56.21
2018-03-06T06:42:48.960Z,56.02
2018-03-06T06:43:48.616Z,56.21
2018-03-06T06:44:48.687Z,56.02
2018-03-06T06:45:48.918Z,56.3
2018-03-06T06:46:49.027Z,56.21
2018-03-06T06:47:48.655Z,56.12
2018-03-06T06:48:48.949Z,56.21
2018-03-06T06:49:48.957Z,56.21
2018-03-06T06:50:48.970Z,56.21
2018-03-06T06:51:48.977Z,56.3
2018-03-06T06:52:48.989Z,56.12
2018-03-06T06:53:48.999Z,56.12
2018-03-06T06:54:49.008Z,56.02
2018-03-06T06:55:49.020Z,56.21
2018-03-06T06:56:49.031Z,56.02
2018-03-06T06:57:49.034Z,56.21
2018-03-06T06:58:49.045Z,56.02
2018-03-06T06:59:48.778Z,56.12
2018-03-06T07:00:49.067Z,56.12
2018-03-06T07:01:49.128Z,56.3
2018-03-06T07:02:48.802Z,56.12
2018-03-06T07:03:49.154Z,55.93
2018-03-06T07:04:48.822Z,56.21
2018-03-06T07:05:49.116Z,56.21
2018-03-06T07:06:49.132Z,56.02
2018-03-06T07:07:49.131Z,56.21
2018-03-06T07:08:49.152Z,56.12
2018-03-06T07:09:49.154Z,56.12
2018-03-06T07:10:49.164Z,56.12
2018-03-06T07:11:48.890Z,56.12
2018-03-06T07:12:48.940Z,56.12
2018-03-06T07:13:49.193Z,56.12
2018-03-06T07:14:49.205Z,56.21
2018-03-06T07:15:48.972Z,56.21
2018-03-06T07:16:49.224Z,56.21
2018-03-06T07:17:49.238Z,55.93
2018-03-06T07:18:49.244Z,55.93
2018-03-06T07:19:48.974Z,55.55
2018-03-06T07:20:48.979Z,55.93
2018-03-06T07:21:48.994Z,55.48
2018-03-06T07:22:49.282Z,55.86
2018-03-06T07:23:49.307Z,55.45
2018-03-06T07:24:49.302Z,55.45
2018-03-06T07:25:49.310Z,55.96
2018-03-06T07:26:49.040Z,55.93
2018-03-06T07:27:49.333Z,55.48
2018-03-06T07:28:49.058Z,55.48
2018-03-06T07:29:49.354Z,55.48
2018-03-06T07:30:49.092Z,55.86
2018-03-06T07:31:49.413Z,55.67
2018-03-06T07:32:49.383Z,55.86
2018-03-06T07:33:49.392Z,55.57
2018-03-06T07:34:49.407Z,55.57
2018-03-06T07:35:49.409Z,55.57
2018-03-06T07:36:49.418Z,55.57
2018-03-06T07:37:49.147Z,55.57
2018-03-06T07:38:49.160Z,55.57
2018-03-06T07:39:49.452Z,55.48
2018-03-06T07:40:49.463Z,55.57
2018-03-06T07:41:49.243Z,55.57
2018-03-06T07:42:49.482Z,55.67
2018-03-06T07:43:49.491Z,55.38
2018-03-06T07:44:49.218Z,55.48
2018-03-06T07:45:49.508Z,55.48
2018-03-06T07:46:49.237Z,55.48
2018-03-06T07:47:49.531Z,55.38
2018-03-06T07:48:49.546Z,55.76
2018-03-06T07:49:49.550Z,55.29
2018-03-06T07:50:49.278Z,55.38
2018-03-06T07:51:49.570Z,55.48
2018-03-06T07:52:49.297Z,55.29
2018-03-06T07:53:49.588Z,55.19
2018-03-06T07:54:49.317Z,55.67
2018-03-06T07:55:49.614Z,55.38
2018-03-06T07:56:49.621Z,55.67
2018-03-06T07:57:49.632Z,55.1
2018-03-06T07:58:49.639Z,55.1
2018-03-06T07:59:49.370Z,55.1
2018-03-06T08:00:49.663Z,55.38
2018-03-06T08:01:49.673Z,54.91
2018-03-06T08:02:49.700Z,55.19
2018-03-06T08:03:49.409Z,55.1
2018-03-06T08:04:49.704Z,55.1
2018-03-06T08:05:49.428Z,55
2018-03-06T08:06:49.724Z,55.1
2018-03-06T08:07:49.448Z,55.1
2018-03-06T08:08:49.739Z,55.38
2018-03-06T08:09:49.751Z,55.19
2018-03-06T08:10:49.768Z,55.1
2018-03-06T08:11:49.771Z,55.1
2018-03-06T08:12:49.784Z,55.1
2018-03-06T08:13:49.790Z,55.1
2018-03-06T08:14:49.519Z,55
2018-03-06T08:15:49.529Z,55
2018-03-06T08:16:49.538Z,54.91
2018-03-06T08:17:49.885Z,54.91
2018-03-06T08:18:49.576Z,54.91
2018-03-06T08:19:49.853Z,54.82
2018-03-06T08:20:49.584Z,54.72
2018-03-06T08:21:49.883Z,54.82
2018-03-06T08:22:49.601Z,54.82
2018-03-06T08:23:49.611Z,55
2018-03-06T08:24:49.904Z,54.63
2018-03-06T08:25:49.917Z,54.82
2018-03-06T08:26:49.644Z,54.82
2018-03-06T08:27:49.656Z,54.72
2018-03-06T08:28:49.662Z,54.91
2018-03-06T08:29:49.956Z,54.85
2018-03-06T08:30:49.692Z,54.72
2018-03-06T08:31:49.976Z,54.75
2018-03-06T08:32:49.705Z,54.66
2018-03-06T08:33:50.003Z,54.46
2018-03-06T08:34:50.008Z,54.37
2018-03-06T08:35:50.023Z,54.75
2018-03-06T08:36:49.749Z,54.27
2018-03-06T08:37:50.039Z,54.46
2018-03-06T08:38:50.052Z,54.66
2018-03-06T08:39:49.776Z,54.56
2018-03-06T08:40:50.067Z,54.66
2018-03-06T08:41:50.080Z,54.75
2018-03-06T08:42:50.092Z,54.66
2018-03-06T08:43:49.818Z,54.75
2018-03-06T08:44:50.152Z,54.56
2018-03-06T08:45:50.128Z,53.99
2018-03-06T08:46:50.131Z,54.18
2018-03-06T08:47:50.140Z,54.08
2018-03-06T08:48:50.157Z,54.18
2018-03-06T08:49:49.880Z,54.08
2018-03-06T08:50:50.175Z,54.37
2018-03-06T08:51:50.185Z,54.18
2018-03-06T08:52:50.202Z,54.08
2018-03-06T08:53:49.921Z,53.99
2018-03-06T08:54:50.215Z,54.08
2018-03-06T08:55:49.949Z,54.18
2018-03-06T08:56:50.234Z,53.99
2018-03-06T08:57:50.250Z,53.99
2018-03-06T08:58:49.977Z,53.89
2018-03-06T08:59:50.271Z,53.7
2018-03-06T09:00:50.278Z,53.89
2018-03-06T09:01:50.292Z,53.42
2018-03-06T09:02:50.298Z,53.42
2018-03-06T09:03:50.309Z,53.61
2018-03-06T09:04:50.334Z,53.61
2018-03-06T09:05:50.333Z,53.52
2018-03-06T09:06:50.340Z,54.02
2018-03-06T09:07:50.359Z,53.73
2018-03-06T09:08:50.082Z,53.64
2018-03-06T09:09:50.373Z,53.45
2018-03-06T09:10:50.101Z,53.45
2018-03-06T09:11:50.397Z,53.45
2018-03-06T09:12:50.406Z,53.54
2018-03-06T09:13:50.417Z,53.45
2018-03-06T09:14:50.144Z,53.45
2018-03-06T09:15:50.162Z,53.07
2018-03-06T09:16:50.450Z,53.35
2018-03-06T09:17:50.179Z,53.16
2018-03-06T09:18:50.479Z,53.26
2018-03-06T09:19:50.198Z,53.07
2018-03-06T09:20:50.210Z,53.07
2018-03-06T09:21:50.503Z,53.35
2018-03-06T09:22:50.231Z,53.26
2018-03-06T09:23:50.525Z,53.07
2018-03-06T09:24:50.548Z,53.16
2018-03-06T09:25:50.547Z,53.35
2018-03-06T09:26:50.555Z,53.26
2018-03-06T09:27:50.290Z,53.35
2018-03-06T09:28:50.297Z,53.35
2018-03-06T09:29:50.305Z,53.35
2018-03-06T09:30:50.642Z,53.35
2018-03-06T09:31:50.611Z,53.64
2018-03-06T09:32:50.626Z,53.54
2018-03-06T09:33:50.641Z,53.64
2018-03-06T09:34:50.361Z,53.64
2018-03-06T09:35:50.378Z,53.57
2018-03-06T09:36:50.666Z,53.19
2018-03-06T09:37:50.396Z,52.81
2018-03-06T09:38:50.687Z,52.81
2018-03-06T09:39:50.699Z,52.72
2018-03-06T09:40:50.713Z,52.62
2018-03-06T09:41:50.459Z,52.91
2018-03-06T09:42:50.737Z,52.81
2018-03-06T09:43:50.743Z,52.72
2018-03-06T09:44:50.759Z,52.81
2018-03-06T09:45:50.487Z,52.62
2018-03-06T09:46:50.498Z,52.14
2018-03-06T09:47:50.558Z,52.14
2018-03-06T09:48:50.803Z,52.62
2018-03-06T09:49:50.814Z,52.91
2018-03-06T09:50:50.831Z,52.91
2018-03-06T09:51:50.833Z,52.33
2018-03-06T09:52:50.618Z,52.33
2018-03-06T09:53:50.577Z,52.43
2018-03-06T09:54:50.588Z,52.43
2018-03-06T09:55:50.879Z,52.72
2018-03-06T09:56:50.610Z,52.53
2018-03-06T09:57:50.672Z,52.33
2018-03-06T09:58:50.924Z,52.53
2018-03-06T09:59:50.927Z,52.14
2018-03-06T10:00:50.939Z,52.26
2018-03-06T10:01:50.953Z,52.17
2018-03-06T10:02:50.959Z,52.08
2018-03-06T10:03:50.974Z,51.98
2018-03-06T10:04:50.700Z,51.6
2018-03-06T10:05:50.711Z,51.7
2018-03-06T10:06:51.002Z,51.6
2018-03-06T10:07:51.019Z,51.7
2018-03-06T10:08:51.028Z,51.31
2018-03-06T10:09:51.040Z,51.41
2018-03-06T10:10:51.063Z,51.51
2018-03-06T10:11:51.066Z,51.12
2018-03-06T10:12:51.076Z,50.46
2018-03-06T10:13:51.085Z,50.74
2018-03-06T10:14:51.101Z,50.84
2018-03-06T10:15:50.828Z,50.65
2018-03-06T10:16:51.145Z,50.18
2018-03-06T10:17:51.137Z,50.18
2018-03-06T10:18:50.866Z,50.37
2018-03-06T10:19:51.153Z,50.46
2018-03-06T10:20:51.173Z,50.46
2018-03-06T10:21:51.183Z,50.56
2018-03-06T10:22:50.917Z,50.37
2018-03-06T10:23:51.273Z,50.56
2018-03-06T10:24:51.219Z,50.74
2018-03-06T10:25:51.227Z,50.46
2018-03-06T10:26:51.243Z,50.74
2018-03-06T10:27:50.970Z,50.56
2018-03-06T10:28:51.261Z,50.74
2018-03-06T10:29:50.994Z,50.18
2018-03-06T10:30:51.285Z,50.56
2018-03-06T10:31:51.298Z,50.65
2018-03-06T10:32:51.034Z,50.29
2018-03-06T10:33:51.040Z,50.29
2018-03-06T10:34:51.345Z,50.48
2018-03-06T10:35:51.349Z,50.39
2018-03-06T10:36:51.368Z,50.29
2018-03-06T10:37:51.090Z,50.2
2018-03-06T10:38:51.437Z,50.2
2018-03-06T10:39:51.114Z,50.29
2018-03-06T10:40:51.412Z,50.29
2018-03-06T10:41:51.142Z,50.2
2018-03-06T10:42:51.150Z,50.48
2018-03-06T10:43:51.560Z,50.01
2018-03-06T10:44:51.175Z,49.82
2018-03-06T10:45:51.473Z,50.39
2018-03-06T10:46:51.482Z,50.01
2018-03-06T10:47:51.213Z,49.91
2018-03-06T10:48:51.559Z,50.2
2018-03-06T10:49:51.521Z,50.01
2018-03-06T10:50:51.249Z,49.54
2018-03-06T10:51:51.264Z,49.54
2018-03-06T10:52:51.554Z,49.44
2018-03-06T10:53:51.286Z,49.35
2018-03-06T10:54:51.298Z,49.44
2018-03-06T10:55:51.594Z,48.87
2018-03-06T10:56:51.326Z,48.61
2018-03-06T10:57:51.619Z,48.61
2018-03-06T10:58:51.633Z,48.61
2018-03-06T10:59:51.361Z,48.61
2018-03-06T11:00:51.655Z,48.42
2018-03-06T11:01:51.672Z,48.32
2018-03-06T11:02:51.400Z,48.13
2018-03-06T11:03:51.468Z,48.23
2018-03-06T11:04:51.707Z,48.23
2018-03-06T11:05:51.437Z,48.32
2018-03-06T11:06:51.733Z,48.03
2018-03-06T11:07:51.746Z,48.23
2018-03-06T11:08:51.812Z,48.23
2018-03-06T11:09:51.487Z,48.32
2018-03-06T11:10:51.786Z,48.03
2018-03-06T11:11:51.802Z,48.03
2018-03-06T11:12:51.811Z,47.47
2018-03-06T11:13:51.589Z,47.47
2018-03-06T11:14:51.560Z,47.75
2018-03-06T11:15:51.856Z,47.85
2018-03-06T11:16:51.867Z,47.75
2018-03-06T11:17:51.873Z,47.66
2018-03-06T11:18:51.939Z,47.75
2018-03-06T11:19:51.617Z,47.66
2018-03-06T11:20:51.910Z,47.47
2018-03-06T11:21:51.934Z,47.56
2018-03-06T11:22:51.937Z,47.66
2018-03-06T11:23:51.672Z,47.66
2018-03-06T11:24:51.680Z,47.75
2018-03-06T11:25:51.974Z,47.75
2018-03-06T11:26:51.992Z,47.47
2018-03-06T11:27:52.003Z,47.75
2018-03-06T11:28:52.015Z,47.85
2018-03-06T11:29:51.751Z,47.66
2018-03-06T11:30:52.040Z,47.56
2018-03-06T11:31:52.057Z,47.56
2018-03-06T11:32:52.066Z,47.56
2018-03-06T11:33:51.799Z,48.16
2018-03-06T11:34:51.810Z,47.49
2018-03-06T11:35:52.111Z,47.49
2018-03-06T11:36:51.835Z,47.49
2018-03-06T11:37:51.849Z,47.68
2018-03-06T11:38:51.864Z,47.68
2018-03-06T11:39:52.180Z,47.78
2018-03-06T11:40:51.889Z,47.49
2018-03-06T11:41:52.191Z,47.78
2018-03-06T11:42:52.202Z,47.97
2018-03-06T11:43:52.212Z,47.49
2018-03-06T11:44:52.225Z,47.49
2018-03-06T11:45:52.238Z,47.58
2018-03-06T11:46:51.969Z,47.68
2018-03-06T11:47:52.266Z,47.58
2018-03-06T11:48:52.275Z,47.58
2018-03-06T11:49:52.321Z,47.58
2018-03-06T11:50:52.023Z,47.87
2018-03-06T11:51:52.381Z,47.68
2018-03-06T11:52:52.334Z,47.87
2018-03-06T11:53:52.343Z,47.68
2018-03-06T11:54:52.074Z,47.68
2018-03-06T11:55:52.094Z,47.68
2018-03-06T11:56:52.385Z,47.68
2018-03-06T11:57:52.396Z,47.78
2018-03-06T11:58:52.409Z,47.66
2018-03-06T11:59:52.426Z,47.11
2018-03-06T12:00:52.439Z,47.39
2018-03-06T12:01:52.449Z,47.37
2018-03-06T12:02:52.462Z,47.47
2018-03-06T12:03:52.509Z,47.09
2018-03-06T12:04:52.491Z,47.75
2018-03-06T12:05:52.224Z,47.28
2018-03-06T12:06:52.236Z,47.75
2018-03-06T12:07:52.530Z,47.75
2018-03-06T12:08:52.548Z,47.56
2018-03-06T12:09:52.573Z,47.66
2018-03-06T12:10:52.570Z,47.85
2018-03-06T12:11:52.586Z,48.03
2018-03-06T12:12:52.604Z,47.56
2018-03-06T12:13:52.612Z,47.47
2018-03-06T12:14:52.392Z,47.66
2018-03-06T12:15:52.639Z,47.75
2018-03-06T12:16:52.654Z,47.75
2018-03-06T12:17:52.665Z,47.47
2018-03-06T12:18:52.679Z,47.94
2018-03-06T12:19:52.695Z,47.75
2018-03-06T12:20:52.707Z,47.94
2018-03-06T12:21:52.717Z,47.75
2018-03-06T12:22:52.735Z,48.03
2018-03-06T12:23:52.745Z,47.94
2018-03-06T12:24:52.808Z,47.94
2018-03-06T12:25:52.489Z,47.75
2018-03-06T12:26:52.788Z,47.85
2018-03-06T12:27:52.798Z,47.94
2018-03-06T12:28:52.812Z,47.94
2018-03-06T12:29:52.539Z,47.94
2018-03-06T12:30:52.556Z,47.85
2018-03-06T12:31:52.850Z,48.23
2018-03-06T12:32:52.867Z,48.71
2018-03-06T12:33:52.594Z,48.42
2018-03-06T12:34:52.892Z,49.08
2018-03-06T12:35:52.909Z,49.46
2018-03-06T12:36:53.001Z,49.85
2018-03-06T12:37:52.647Z,49.56
2018-03-06T12:38:52.948Z,49.46
2018-03-06T12:39:53.007Z,49.75
2018-03-06T12:40:52.971Z,49.65
2018-03-06T12:41:52.699Z,49.27
2018-03-06T12:42:53.031Z,49.37
2018-03-06T12:43:52.728Z,49.37
2018-03-06T12:44:53.175Z,49.56
2018-03-06T12:45:53.040Z,50.23
2018-03-06T12:46:53.050Z,50.13
2018-03-06T12:47:53.071Z,50.13
2018-03-06T12:48:52.798Z,50.23
2018-03-06T12:49:52.808Z,50.13
2018-03-06T12:50:52.824Z,50.23
2018-03-06T12:51:53.123Z,50.32
2018-03-06T12:52:53.133Z,50.32
2018-03-06T12:53:53.143Z,50.42
2018-03-06T12:54:53.264Z,50.13